This is the latest recevied weather packets stored in our database for station/object HA2SKA-1. If no packets are shown the sender has not sent any weather packets the latest 10 day(s).
| Time | Temp. | Humidity | Pressure | Rain* | Wind** | Luminosity | Snow |
|---|---|---|---|---|---|---|---|
| 1777430762 | 12.22° C | 35% | 1022.2 hPa | - | - | - | - |
| 1777429862 | 12.22° C | 36% | 1022 hPa | - | - | - | - |
| 1777428962 | 12.22° C | 35% | 1021.8 hPa | - | - | - | - |
| 1777428062 | 12.22° C | 36% | 1021.7 hPa | - | - | - | - |
| 1777427161 | 12.22° C | 38% | 1021.6 hPa | - | - | - | - |
| 1777426262 | 12.78° C | 40% | 1021.7 hPa | - | - | - | - |
| 1777425361 | 12.78° C | 42% | 1021.7 hPa | - | - | - | - |
| 1777424461 | 12.22° C | 52% | 1021.6 hPa | - | - | - | - |
| 1777423561 | 12.78° C | 52% | 1021.6 hPa | - | - | - | - |
| 1777422661 | 12.78° C | 51% | 1021.3 hPa | - | - | - | - |
| 1777421761 | 12.78° C | 52% | 1021.4 hPa | - | - | - | - |
| 1777420861 | 12.78° C | 53% | 1021.4 hPa | - | - | - | - |
| 1777419961 | 12.78° C | 50% | 1021.3 hPa | - | - | - | - |
| 1777419061 | 13.33° C | 45% | 1021.2 hPa | - | - | - | - |
| 1777418161 | 13.89° C | 43% | 1021.2 hPa | - | - | - | - |
| 1777417261 | 13.33° C | 46% | 1021.2 hPa | - | - | - | - |
| 1777416361 | 12.78° C | 48% | 1021.3 hPa | - | - | - | - |
| 1777415460 | 12.78° C | 47% | 1021.4 hPa | - | - | - | - |
| 1777414560 | 13.33° C | 46% | 1021.3 hPa | - | - | - | - |
| 1777413660 | 13.33° C | 45% | 1021.3 hPa | - | - | - | - |
| 1777412760 | 13.33° C | 46% | 1021.3 hPa | - | - | - | - |
| 1777411860 | 13.89° C | 45% | 1021.3 hPa | - | - | - | - |
| 1777410960 | 13.33° C | 46% | 1021.2 hPa | - | - | - | - |
| 1777410060 | 14.44° C | 45% | 1021 hPa | - | - | - | - |
| 1777409160 | 14.44° C | 43% | 1021 hPa | - | - | - | - |
* Rain since midnight (hover to see other rain measurements)
** Current wind speed in m/s (hover to see current wind gust speed)